sensor_id;sensor_type;location;lat;lon;timestamp;P1;durP1;ratioP1;P2;durP2;ratioP2
19219;SDS011;9744;49.364;7.484;2022-11-20T00:01:48;43.10;;;20.38;;
19219;SDS011;9744;49.364;7.484;2022-11-20T00:04:15;53.63;;;22.33;;
19219;SDS011;9744;49.364;7.484;2022-11-20T00:06:42;58.17;;;23.98;;
19219;SDS011;9744;49.364;7.484;2022-11-20T00:09:11;49.50;;;21.55;;
19219;SDS011;9744;49.364;7.484;2022-11-20T00:11:38;50.35;;;22.63;;
19219;SDS011;9744;49.364;7.484;2022-11-20T00:14:05;52.47;;;21.83;;
19219;SDS011;9744;49.364;7.484;2022-11-20T00:16:32;55.40;;;23.02;;
19219;SDS011;9744;49.364;7.484;2022-11-20T00:18:59;50.97;;;21.67;;
19219;SDS011;9744;49.364;7.484;2022-11-20T00:21:27;57.63;;;23.70;;
19219;SDS011;9744;49.364;7.484;2022-11-20T00:23:55;55.85;;;21.60;;
19219;SDS011;9744;49.364;7.484;2022-11-20T00:26:25;55.63;;;23.00;;
19219;SDS011;9744;49.364;7.484;2022-11-20T00:28:54;48.20;;;21.08;;
19219;SDS011;9744;49.364;7.484;2022-11-20T00:31:22;57.65;;;21.95;;
19219;SDS011;9744;49.364;7.484;2022-11-20T00:33:50;53.92;;;20.98;;
19219;SDS011;9744;49.364;7.484;2022-11-20T00:36:18;57.90;;;23.52;;
19219;SDS011;9744;49.364;7.484;2022-11-20T00:38:46;52.70;;;23.58;;
19219;SDS011;9744;49.364;7.484;2022-11-20T00:41:17;63.78;;;22.90;;
19219;SDS011;9744;49.364;7.484;2022-11-20T00:43:46;57.95;;;24.33;;
19219;SDS011;9744;49.364;7.484;2022-11-20T00:46:14;58.80;;;23.92;;
19219;SDS011;9744;49.364;7.484;2022-11-20T00:48:42;52.88;;;23.15;;
19219;SDS011;9744;49.364;7.484;2022-11-20T00:51:11;53.22;;;23.13;;
19219;SDS011;9744;49.364;7.484;2022-11-20T00:53:39;51.17;;;22.38;;
19219;SDS011;9744;49.364;7.484;2022-11-20T00:56:07;60.78;;;23.27;;
19219;SDS011;9744;49.364;7.484;2022-11-20T00:58:37;55.17;;;21.63;;
19219;SDS011;9744;49.364;7.484;2022-11-20T01:01:07;56.50;;;22.58;;
19219;SDS011;9744;49.364;7.484;2022-11-20T01:03:36;57.53;;;22.73;;
19219;SDS011;9744;49.364;7.484;2022-11-20T01:06:05;55.88;;;21.52;;
19219;SDS011;9744;49.364;7.484;2022-11-20T01:08:36;63.42;;;22.38;;
19219;SDS011;9744;49.364;7.484;2022-11-20T01:11:04;55.72;;;21.83;;
19219;SDS011;9744;49.364;7.484;2022-11-20T01:13:33;50.20;;;21.58;;
19219;SDS011;9744;49.364;7.484;2022-11-20T01:16:05;54.15;;;21.50;;
19219;SDS011;9744;49.364;7.484;2022-11-20T01:18:35;58.70;;;22.15;;
19219;SDS011;9744;49.364;7.484;2022-11-20T01:21:04;55.22;;;22.42;;
19219;SDS011;9744;49.364;7.484;2022-11-20T01:23:32;58.92;;;22.83;;
19219;SDS011;9744;49.364;7.484;2022-11-20T01:26:01;50.38;;;23.08;;
19219;SDS011;9744;49.364;7.484;2022-11-20T01:28:29;50.90;;;22.33;;
19219;SDS011;9744;49.364;7.484;2022-11-20T01:30:57;50.55;;;22.38;;
19219;SDS011;9744;49.364;7.484;2022-11-20T01:33:26;54.53;;;23.05;;
19219;SDS011;9744;49.364;7.484;2022-11-20T01:36:02;54.50;;;23.50;;
19219;SDS011;9744;49.364;7.484;2022-11-20T01:38:30;50.30;;;21.95;;
19219;SDS011;9744;49.364;7.484;2022-11-20T01:40:57;47.80;;;22.88;;
19219;SDS011;9744;49.364;7.484;2022-11-20T01:43:25;49.83;;;22.40;;
19219;SDS011;9744;49.364;7.484;2022-11-20T01:45:55;53.47;;;22.88;;
19219;SDS011;9744;49.364;7.484;2022-11-20T01:48:42;58.22;;;23.45;;
19219;SDS011;9744;49.364;7.484;2022-11-20T01:51:17;55.38;;;22.35;;
19219;SDS011;9744;49.364;7.484;2022-11-20T01:53:49;52.33;;;22.65;;
19219;SDS011;9744;49.364;7.484;2022-11-20T01:56:17;54.50;;;22.63;;
19219;SDS011;9744;49.364;7.484;2022-11-20T01:58:45;49.60;;;21.92;;
19219;SDS011;9744;49.364;7.484;2022-11-20T02:01:15;48.58;;;22.95;;
19219;SDS011;9744;49.364;7.484;2022-11-20T02:03:43;51.90;;;23.02;;
19219;SDS011;9744;49.364;7.484;2022-11-20T02:06:12;56.70;;;23.60;;
19219;SDS011;9744;49.364;7.484;2022-11-20T02:08:43;46.33;;;20.88;;
19219;SDS011;9744;49.364;7.484;2022-11-20T02:11:11;46.15;;;21.15;;
19219;SDS011;9744;49.364;7.484;2022-11-20T02:13:39;53.10;;;21.50;;
19219;SDS011;9744;49.364;7.484;2022-11-20T02:16:11;49.92;;;21.67;;
19219;SDS011;9744;49.364;7.484;2022-11-20T02:18:41;51.88;;;22.17;;
19219;SDS011;9744;49.364;7.484;2022-11-20T02:24:04;45.90;;;20.85;;
19219;SDS011;9744;49.364;7.484;2022-11-20T02:26:37;49.20;;;21.50;;
19219;SDS011;9744;49.364;7.484;2022-11-20T02:29:07;44.55;;;19.85;;
19219;SDS011;9744;49.364;7.484;2022-11-20T02:31:36;47.72;;;20.80;;
19219;SDS011;9744;49.364;7.484;2022-11-20T02:34:05;50.67;;;21.70;;
19219;SDS011;9744;49.364;7.484;2022-11-20T02:36:33;53.83;;;20.67;;
19219;SDS011;9744;49.364;7.484;2022-11-20T02:39:02;51.00;;;20.35;;
19219;SDS011;9744;49.364;7.484;2022-11-20T02:41:32;44.10;;;20.63;;
19219;SDS011;9744;49.364;7.484;2022-11-20T02:44:00;44.72;;;20.13;;
19219;SDS011;9744;49.364;7.484;2022-11-20T02:46:28;45.30;;;20.70;;
19219;SDS011;9744;49.364;7.484;2022-11-20T02:48:55;43.28;;;20.23;;
19219;SDS011;9744;49.364;7.484;2022-11-20T02:51:23;43.92;;;18.55;;
19219;SDS011;9744;49.364;7.484;2022-11-20T02:53:51;40.97;;;20.27;;
19219;SDS011;9744;49.364;7.484;2022-11-20T02:56:19;46.35;;;19.38;;
19219;SDS011;9744;49.364;7.484;2022-11-20T02:58:48;40.13;;;20.15;;
19219;SDS011;9744;49.364;7.484;2022-11-20T03:01:15;45.38;;;20.65;;
19219;SDS011;9744;49.364;7.484;2022-11-20T03:03:42;42.70;;;19.10;;
19219;SDS011;9744;49.364;7.484;2022-11-20T03:06:09;44.33;;;18.88;;
19219;SDS011;9744;49.364;7.484;2022-11-20T03:08:38;39.47;;;18.63;;
19219;SDS011;9744;49.364;7.484;2022-11-20T03:11:06;39.03;;;17.10;;
19219;SDS011;9744;49.364;7.484;2022-11-20T03:13:34;33.92;;;17.02;;
19219;SDS011;9744;49.364;7.484;2022-11-20T03:16:10;38.55;;;18.30;;
19219;SDS011;9744;49.364;7.484;2022-11-20T03:18:38;36.83;;;17.08;;
19219;SDS011;9744;49.364;7.484;2022-11-20T03:21:06;38.10;;;17.17;;
19219;SDS011;9744;49.364;7.484;2022-11-20T03:23:34;39.05;;;16.95;;
19219;SDS011;9744;49.364;7.484;2022-11-20T03:26:12;32.92;;;16.95;;
19219;SDS011;9744;49.364;7.484;2022-11-20T03:28:41;32.83;;;16.55;;
19219;SDS011;9744;49.364;7.484;2022-11-20T03:31:13;36.25;;;16.50;;
19219;SDS011;9744;49.364;7.484;2022-11-20T03:33:41;36.63;;;16.50;;
19219;SDS011;9744;49.364;7.484;2022-11-20T03:36:10;36.78;;;16.65;;
19219;SDS011;9744;49.364;7.484;2022-11-20T03:38:38;29.60;;;15.25;;
19219;SDS011;9744;49.364;7.484;2022-11-20T03:41:06;30.58;;;15.73;;
19219;SDS011;9744;49.364;7.484;2022-11-20T03:43:35;36.33;;;15.68;;
19219;SDS011;9744;49.364;7.484;2022-11-20T03:46:03;35.28;;;15.52;;
19219;SDS011;9744;49.364;7.484;2022-11-20T03:48:32;29.52;;;15.63;;
19219;SDS011;9744;49.364;7.484;2022-11-20T03:51:06;36.53;;;16.23;;
19219;SDS011;9744;49.364;7.484;2022-11-20T03:53:37;33.90;;;15.73;;
19219;SDS011;9744;49.364;7.484;2022-11-20T03:56:05;33.85;;;16.63;;
19219;SDS011;9744;49.364;7.484;2022-11-20T03:58:33;31.45;;;15.73;;
19219;SDS011;9744;49.364;7.484;2022-11-20T04:01:05;30.15;;;14.48;;
19219;SDS011;9744;49.364;7.484;2022-11-20T04:03:35;31.63;;;15.70;;
19219;SDS011;9744;49.364;7.484;2022-11-20T04:06:03;28.73;;;15.25;;
19219;SDS011;9744;49.364;7.484;2022-11-20T04:08:32;31.33;;;15.07;;
19219;SDS011;9744;49.364;7.484;2022-11-20T04:11:12;27.20;;;13.90;;
19219;SDS011;9744;49.364;7.484;2022-11-20T04:13:40;24.95;;;14.68;;
19219;SDS011;9744;49.364;7.484;2022-11-20T04:16:09;24.85;;;13.82;;
19219;SDS011;9744;49.364;7.484;2022-11-20T04:18:38;29.08;;;13.57;;
19219;SDS011;9744;49.364;7.484;2022-11-20T04:21:05;24.52;;;13.68;;
19219;SDS011;9744;49.364;7.484;2022-11-20T04:23:33;26.35;;;13.98;;
19219;SDS011;9744;49.364;7.484;2022-11-20T04:26:00;23.75;;;13.07;;
19219;SDS011;9744;49.364;7.484;2022-11-20T04:28:28;24.88;;;13.73;;
19219;SDS011;9744;49.364;7.484;2022-11-20T04:31:01;26.80;;;13.60;;
19219;SDS011;9744;49.364;7.484;2022-11-20T04:33:29;26.48;;;12.82;;
19219;SDS011;9744;49.364;7.484;2022-11-20T04:36:00;25.90;;;13.45;;
19219;SDS011;9744;49.364;7.484;2022-11-20T04:38:29;24.27;;;12.35;;
19219;SDS011;9744;49.364;7.484;2022-11-20T04:40:57;28.83;;;13.25;;
19219;SDS011;9744;49.364;7.484;2022-11-20T04:43:25;21.17;;;11.88;;
19219;SDS011;9744;49.364;7.484;2022-11-20T04:45:52;23.40;;;12.65;;
19219;SDS011;9744;49.364;7.484;2022-11-20T04:48:20;24.38;;;11.95;;
19219;SDS011;9744;49.364;7.484;2022-11-20T04:50:48;24.10;;;12.00;;
19219;SDS011;9744;49.364;7.484;2022-11-20T04:53:16;24.20;;;12.70;;
19219;SDS011;9744;49.364;7.484;2022-11-20T04:55:43;28.77;;;13.57;;
19219;SDS011;9744;49.364;7.484;2022-11-20T04:58:11;26.63;;;13.48;;
19219;SDS011;9744;49.364;7.484;2022-11-20T05:00:39;23.08;;;13.43;;
19219;SDS011;9744;49.364;7.484;2022-11-20T05:03:06;27.70;;;13.05;;
19219;SDS011;9744;49.364;7.484;2022-11-20T05:05:33;26.00;;;13.30;;
19219;SDS011;9744;49.364;7.484;2022-11-20T05:08:01;28.88;;;13.02;;
19219;SDS011;9744;49.364;7.484;2022-11-20T05:10:30;22.08;;;12.07;;
19219;SDS011;9744;49.364;7.484;2022-11-20T05:12:57;25.20;;;12.80;;
19219;SDS011;9744;49.364;7.484;2022-11-20T05:15:24;25.88;;;13.38;;
19219;SDS011;9744;49.364;7.484;2022-11-20T05:17:52;23.75;;;13.25;;
19219;SDS011;9744;49.364;7.484;2022-11-20T05:20:19;29.00;;;14.88;;
19219;SDS011;9744;49.364;7.484;2022-11-20T05:22:47;22.95;;;13.02;;
19219;SDS011;9744;49.364;7.484;2022-11-20T05:25:14;29.25;;;14.00;;
19219;SDS011;9744;49.364;7.484;2022-11-20T05:27:42;26.80;;;13.80;;
19219;SDS011;9744;49.364;7.484;2022-11-20T05:30:10;26.15;;;13.27;;
19219;SDS011;9744;49.364;7.484;2022-11-20T05:32:39;26.58;;;13.23;;
19219;SDS011;9744;49.364;7.484;2022-11-20T05:35:06;27.52;;;13.13;;
19219;SDS011;9744;49.364;7.484;2022-11-20T05:37:33;29.70;;;12.32;;
19219;SDS011;9744;49.364;7.484;2022-11-20T05:40:01;26.85;;;12.38;;
19219;SDS011;9744;49.364;7.484;2022-11-20T05:42:29;32.33;;;13.73;;
19219;SDS011;9744;49.364;7.484;2022-11-20T05:50:47;15.43;;;9.00;;
19219;SDS011;9744;49.364;7.484;2022-11-20T05:53:14;15.60;;;8.82;;
19219;SDS011;9744;49.364;7.484;2022-11-20T05:55:42;16.17;;;9.05;;
19219;SDS011;9744;49.364;7.484;2022-11-20T05:58:09;18.48;;;9.70;;
19219;SDS011;9744;49.364;7.484;2022-11-20T06:00:36;16.48;;;9.80;;
19219;SDS011;9744;49.364;7.484;2022-11-20T06:03:03;17.02;;;9.20;;
19219;SDS011;9744;49.364;7.484;2022-11-20T06:05:30;21.70;;;10.23;;
19219;SDS011;9744;49.364;7.484;2022-11-20T06:08:01;18.05;;;10.27;;
19219;SDS011;9744;49.364;7.484;2022-11-20T06:10:28;15.82;;;9.73;;
19219;SDS011;9744;49.364;7.484;2022-11-20T06:12:57;17.20;;;9.40;;
19219;SDS011;9744;49.364;7.484;2022-11-20T06:15:24;15.27;;;9.02;;
19219;SDS011;9744;49.364;7.484;2022-11-20T06:17:52;17.35;;;9.70;;
19219;SDS011;9744;49.364;7.484;2022-11-20T06:20:20;15.20;;;9.05;;
19219;SDS011;9744;49.364;7.484;2022-11-20T06:22:47;12.90;;;8.30;;
19219;SDS011;9744;49.364;7.484;2022-11-20T06:25:16;17.83;;;9.05;;
19219;SDS011;9744;49.364;7.484;2022-11-20T06:27:43;15.25;;;9.07;;
19219;SDS011;9744;49.364;7.484;2022-11-20T06:30:11;16.90;;;9.93;;
19219;SDS011;9744;49.364;7.484;2022-11-20T06:32:38;18.95;;;10.45;;
19219;SDS011;9744;49.364;7.484;2022-11-20T06:35:06;20.85;;;11.52;;
19219;SDS011;9744;49.364;7.484;2022-11-20T06:37:33;23.05;;;11.25;;
19219;SDS011;9744;49.364;7.484;2022-11-20T06:40:01;17.05;;;9.93;;
19219;SDS011;9744;49.364;7.484;2022-11-20T06:42:29;14.82;;;9.25;;
19219;SDS011;9744;49.364;7.484;2022-11-20T06:44:57;16.63;;;9.93;;
19219;SDS011;9744;49.364;7.484;2022-11-20T06:47:24;18.33;;;10.98;;
19219;SDS011;9744;49.364;7.484;2022-11-20T06:49:51;24.30;;;13.70;;
19219;SDS011;9744;49.364;7.484;2022-11-20T06:52:19;30.25;;;14.63;;
19219;SDS011;9744;49.364;7.484;2022-11-20T06:54:46;31.98;;;16.08;;
19219;SDS011;9744;49.364;7.484;2022-11-20T06:57:13;32.40;;;17.02;;
19219;SDS011;9744;49.364;7.484;2022-11-20T06:59:41;45.58;;;22.92;;
19219;SDS011;9744;49.364;7.484;2022-11-20T07:02:09;40.05;;;20.17;;
19219;SDS011;9744;49.364;7.484;2022-11-20T07:04:37;42.65;;;22.25;;
19219;SDS011;9744;49.364;7.484;2022-11-20T07:07:04;45.88;;;22.30;;
19219;SDS011;9744;49.364;7.484;2022-11-20T07:09:32;47.85;;;24.05;;
19219;SDS011;9744;49.364;7.484;2022-11-20T07:11:59;42.53;;;21.40;;
19219;SDS011;9744;49.364;7.484;2022-11-20T07:14:27;50.50;;;23.83;;
19219;SDS011;9744;49.364;7.484;2022-11-20T07:16:55;46.80;;;22.25;;
19219;SDS011;9744;49.364;7.484;2022-11-20T07:19:22;50.97;;;23.95;;
19219;SDS011;9744;49.364;7.484;2022-11-20T07:21:50;50.08;;;23.15;;
19219;SDS011;9744;49.364;7.484;2022-11-20T07:24:17;53.92;;;24.95;;
19219;SDS011;9744;49.364;7.484;2022-11-20T07:26:45;53.78;;;23.73;;
19219;SDS011;9744;49.364;7.484;2022-11-20T07:29:13;63.83;;;24.42;;
19219;SDS011;9744;49.364;7.484;2022-11-20T07:31:41;56.20;;;25.33;;
19219;SDS011;9744;49.364;7.484;2022-11-20T07:34:10;58.03;;;25.27;;
19219;SDS011;9744;49.364;7.484;2022-11-20T07:36:37;53.67;;;24.08;;
19219;SDS011;9744;49.364;7.484;2022-11-20T07:39:04;55.70;;;25.05;;
19219;SDS011;9744;49.364;7.484;2022-11-20T07:41:31;62.08;;;29.65;;
19219;SDS011;9744;49.364;7.484;2022-11-20T07:43:59;52.67;;;24.95;;
19219;SDS011;9744;49.364;7.484;2022-11-20T07:46:31;54.13;;;24.45;;
19219;SDS011;9744;49.364;7.484;2022-11-20T07:48:58;56.47;;;25.05;;
19219;SDS011;9744;49.364;7.484;2022-11-20T07:51:27;50.22;;;24.00;;
19219;SDS011;9744;49.364;7.484;2022-11-20T07:53:54;51.45;;;24.27;;
19219;SDS011;9744;49.364;7.484;2022-11-20T07:56:21;47.17;;;23.60;;
19219;SDS011;9744;49.364;7.484;2022-11-20T07:58:49;51.13;;;24.13;;
19219;SDS011;9744;49.364;7.484;2022-11-20T08:01:16;48.85;;;24.45;;
19219;SDS011;9744;49.364;7.484;2022-11-20T08:03:43;47.00;;;23.02;;
19219;SDS011;9744;49.364;7.484;2022-11-20T08:06:10;51.42;;;23.90;;
19219;SDS011;9744;49.364;7.484;2022-11-20T08:08:39;43.45;;;22.27;;
19219;SDS011;9744;49.364;7.484;2022-11-20T08:11:06;44.17;;;22.52;;
19219;SDS011;9744;49.364;7.484;2022-11-20T08:13:50;42.65;;;21.88;;
19219;SDS011;9744;49.364;7.484;2022-11-20T08:16:35;45.42;;;21.38;;
19219;SDS011;9744;49.364;7.484;2022-11-20T08:19:02;44.47;;;21.23;;
19219;SDS011;9744;49.364;7.484;2022-11-20T08:21:29;43.22;;;21.40;;
19219;SDS011;9744;49.364;7.484;2022-11-20T08:23:59;38.17;;;20.02;;
19219;SDS011;9744;49.364;7.484;2022-11-20T08:26:26;47.22;;;20.67;;
19219;SDS011;9744;49.364;7.484;2022-11-20T08:28:53;37.75;;;22.23;;
19219;SDS011;9744;49.364;7.484;2022-11-20T08:31:21;43.40;;;20.52;;
19219;SDS011;9744;49.364;7.484;2022-11-20T08:33:48;35.13;;;19.80;;
19219;SDS011;9744;49.364;7.484;2022-11-20T08:36:16;40.95;;;21.63;;
19219;SDS011;9744;49.364;7.484;2022-11-20T08:38:46;37.50;;;20.27;;
19219;SDS011;9744;49.364;7.484;2022-11-20T08:41:15;45.03;;;21.65;;
19219;SDS011;9744;49.364;7.484;2022-11-20T08:43:55;29.95;;;16.98;;
19219;SDS011;9744;49.364;7.484;2022-11-20T08:46:23;35.55;;;19.23;;
19219;SDS011;9744;49.364;7.484;2022-11-20T08:48:51;34.20;;;19.17;;
19219;SDS011;9744;49.364;7.484;2022-11-20T08:51:19;29.67;;;17.45;;
19219;SDS011;9744;49.364;7.484;2022-11-20T08:53:46;28.33;;;17.60;;
19219;SDS011;9744;49.364;7.484;2022-11-20T08:56:16;27.27;;;16.52;;
19219;SDS011;9744;49.364;7.484;2022-11-20T08:58:43;28.13;;;15.63;;
19219;SDS011;9744;49.364;7.484;2022-11-20T09:01:11;33.38;;;18.55;;
19219;SDS011;9744;49.364;7.484;2022-11-20T09:03:38;34.42;;;18.25;;
19219;SDS011;9744;49.364;7.484;2022-11-20T09:06:06;33.67;;;17.25;;
19219;SDS011;9744;49.364;7.484;2022-11-20T09:08:34;41.35;;;18.48;;
19219;SDS011;9744;49.364;7.484;2022-11-20T09:11:02;34.17;;;17.98;;
19219;SDS011;9744;49.364;7.484;2022-11-20T09:13:31;40.17;;;19.63;;
19219;SDS011;9744;49.364;7.484;2022-11-20T09:16:00;32.30;;;18.75;;
19219;SDS011;9744;49.364;7.484;2022-11-20T09:18:29;35.60;;;18.80;;
19219;SDS011;9744;49.364;7.484;2022-11-20T09:20:58;26.75;;;15.57;;
19219;SDS011;9744;49.364;7.484;2022-11-20T09:23:26;27.33;;;14.65;;
19219;SDS011;9744;49.364;7.484;2022-11-20T09:25:57;29.58;;;15.98;;
19219;SDS011;9744;49.364;7.484;2022-11-20T09:28:24;24.75;;;13.52;;
19219;SDS011;9744;49.364;7.484;2022-11-20T09:30:53;28.75;;;15.77;;
19219;SDS011;9744;49.364;7.484;2022-11-20T09:33:20;29.50;;;16.15;;
19219;SDS011;9744;49.364;7.484;2022-11-20T09:35:47;23.42;;;15.05;;
19219;SDS011;9744;49.364;7.484;2022-11-20T09:38:15;29.92;;;14.80;;
19219;SDS011;9744;49.364;7.484;2022-11-20T09:40:44;28.25;;;15.52;;
19219;SDS011;9744;49.364;7.484;2022-11-20T09:43:18;27.98;;;14.95;;
19219;SDS011;9744;49.364;7.484;2022-11-20T09:45:52;29.20;;;16.20;;
19219;SDS011;9744;49.364;7.484;2022-11-20T09:48:44;25.08;;;14.77;;
19219;SDS011;9744;49.364;7.484;2022-11-20T09:51:27;26.15;;;14.63;;
19219;SDS011;9744;49.364;7.484;2022-11-20T09:54:10;33.90;;;15.35;;
19219;SDS011;9744;49.364;7.484;2022-11-20T09:56:42;27.50;;;14.80;;
19219;SDS011;9744;49.364;7.484;2022-11-20T09:59:15;29.50;;;15.65;;
19219;SDS011;9744;49.364;7.484;2022-11-20T10:01:57;35.25;;;16.05;;
19219;SDS011;9744;49.364;7.484;2022-11-20T10:04:26;29.90;;;15.07;;
19219;SDS011;9744;49.364;7.484;2022-11-20T10:07:00;26.10;;;15.43;;
19219;SDS011;9744;49.364;7.484;2022-11-20T10:09:31;34.30;;;16.17;;
19219;SDS011;9744;49.364;7.484;2022-11-20T10:12:05;32.13;;;15.88;;
19219;SDS011;9744;49.364;7.484;2022-11-20T10:14:42;27.15;;;14.05;;
19219;SDS011;9744;49.364;7.484;2022-11-20T10:17:22;28.05;;;15.40;;
19219;SDS011;9744;49.364;7.484;2022-11-20T10:20:09;29.95;;;14.18;;
19219;SDS011;9744;49.364;7.484;2022-11-20T10:22:50;20.63;;;11.05;;
19219;SDS011;9744;49.364;7.484;2022-11-20T10:25:29;19.27;;;10.27;;
19219;SDS011;9744;49.364;7.484;2022-11-20T10:28:08;22.63;;;11.68;;
19219;SDS011;9744;49.364;7.484;2022-11-20T10:30:44;20.55;;;11.00;;
19219;SDS011;9744;49.364;7.484;2022-11-20T10:33:17;23.58;;;10.05;;
19219;SDS011;9744;49.364;7.484;2022-11-20T10:35:50;20.23;;;9.85;;
19219;SDS011;9744;49.364;7.484;2022-11-20T10:38:21;15.23;;;7.07;;
19219;SDS011;9744;49.364;7.484;2022-11-20T10:40:53;14.23;;;6.07;;
19219;SDS011;9744;49.364;7.484;2022-11-20T10:43:43;13.48;;;6.53;;
19219;SDS011;9744;49.364;7.484;2022-11-20T10:46:13;15.60;;;8.23;;
19219;SDS011;9744;49.364;7.484;2022-11-20T10:48:44;18.98;;;8.15;;
19219;SDS011;9744;49.364;7.484;2022-11-20T10:51:15;17.20;;;6.85;;
19219;SDS011;9744;49.364;7.484;2022-11-20T10:53:54;15.38;;;5.18;;
19219;SDS011;9744;49.364;7.484;2022-11-20T10:56:28;11.07;;;5.07;;
19219;SDS011;9744;49.364;7.484;2022-11-20T10:59:10;14.52;;;6.32;;
19219;SDS011;9744;49.364;7.484;2022-11-20T11:01:58;17.55;;;6.03;;
19219;SDS011;9744;49.364;7.484;2022-11-20T11:04:32;12.55;;;5.72;;
19219;SDS011;9744;49.364;7.484;2022-11-20T11:07:10;16.42;;;7.20;;
19219;SDS011;9744;49.364;7.484;2022-11-20T11:09:42;20.75;;;7.35;;
19219;SDS011;9744;49.364;7.484;2022-11-20T11:12:13;16.58;;;6.60;;
19219;SDS011;9744;49.364;7.484;2022-11-20T11:14:44;18.92;;;5.75;;
19219;SDS011;9744;49.364;7.484;2022-11-20T11:17:23;15.98;;;5.20;;
19219;SDS011;9744;49.364;7.484;2022-11-20T11:20:06;9.35;;;5.38;;
19219;SDS011;9744;49.364;7.484;2022-11-20T11:22:43;19.92;;;5.85;;
19219;SDS011;9744;49.364;7.484;2022-11-20T11:25:20;11.63;;;5.63;;
19219;SDS011;9744;49.364;7.484;2022-11-20T11:27:49;13.43;;;5.20;;
19219;SDS011;9744;49.364;7.484;2022-11-20T11:30:18;12.68;;;5.47;;
19219;SDS011;9744;49.364;7.484;2022-11-20T11:32:46;17.38;;;5.65;;
19219;SDS011;9744;49.364;7.484;2022-11-20T11:35:22;14.60;;;7.05;;
19219;SDS011;9744;49.364;7.484;2022-11-20T11:37:52;16.33;;;5.18;;
19219;SDS011;9744;49.364;7.484;2022-11-20T11:40:21;11.25;;;5.65;;
19219;SDS011;9744;49.364;7.484;2022-11-20T11:42:56;16.40;;;4.85;;
19219;SDS011;9744;49.364;7.484;2022-11-20T11:45:25;9.55;;;4.70;;
19219;SDS011;9744;49.364;7.484;2022-11-20T11:47:51;11.75;;;4.82;;
19219;SDS011;9744;49.364;7.484;2022-11-20T11:50:22;19.50;;;5.70;;
19219;SDS011;9744;49.364;7.484;2022-11-20T11:52:54;11.20;;;3.92;;
19219;SDS011;9744;49.364;7.484;2022-11-20T11:55:27;13.10;;;4.07;;
19219;SDS011;9744;49.364;7.484;2022-11-20T11:58:02;9.88;;;4.55;;
19219;SDS011;9744;49.364;7.484;2022-11-20T12:00:35;10.77;;;4.03;;
19219;SDS011;9744;49.364;7.484;2022-11-20T12:03:08;7.97;;;3.05;;
19219;SDS011;9744;49.364;7.484;2022-11-20T12:05:43;10.23;;;3.17;;
19219;SDS011;9744;49.364;7.484;2022-11-20T12:08:15;11.10;;;2.53;;
19219;SDS011;9744;49.364;7.484;2022-11-20T12:10:48;7.07;;;2.10;;
19219;SDS011;9744;49.364;7.484;2022-11-20T12:13:30;9.75;;;2.60;;
19219;SDS011;9744;49.364;7.484;2022-11-20T12:16:07;7.95;;;2.30;;
19219;SDS011;9744;49.364;7.484;2022-11-20T12:18:38;7.97;;;2.08;;
19219;SDS011;9744;49.364;7.484;2022-11-20T12:21:10;10.93;;;1.88;;
19219;SDS011;9744;49.364;7.484;2022-11-20T12:23:52;10.60;;;2.42;;
19219;SDS011;9744;49.364;7.484;2022-11-20T12:26:33;8.65;;;1.83;;
19219;SDS011;9744;49.364;7.484;2022-11-20T12:29:24;12.50;;;3.90;;
19219;SDS011;9744;49.364;7.484;2022-11-20T12:32:06;7.20;;;2.85;;
19219;SDS011;9744;49.364;7.484;2022-11-20T12:35:00;7.22;;;2.10;;
19219;SDS011;9744;49.364;7.484;2022-11-20T12:37:37;9.57;;;3.00;;
19219;SDS011;9744;49.364;7.484;2022-11-20T12:40:16;10.20;;;3.58;;
19219;SDS011;9744;49.364;7.484;2022-11-20T12:42:56;5.57;;;2.50;;
19219;SDS011;9744;49.364;7.484;2022-11-20T12:45:54;6.65;;;1.98;;
19219;SDS011;9744;49.364;7.484;2022-11-20T12:48:41;9.13;;;1.88;;
19219;SDS011;9744;49.364;7.484;2022-11-20T12:51:25;5.05;;;1.15;;
19219;SDS011;9744;49.364;7.484;2022-11-20T12:54:19;9.15;;;1.77;;
19219;SDS011;9744;49.364;7.484;2022-11-20T12:57:09;8.43;;;1.48;;
19219;SDS011;9744;49.364;7.484;2022-11-20T12:59:50;3.97;;;1.88;;
19219;SDS011;9744;49.364;7.484;2022-11-20T13:02:37;6.47;;;1.40;;
19219;SDS011;9744;49.364;7.484;2022-11-20T13:05:19;8.23;;;2.35;;
19219;SDS011;9744;49.364;7.484;2022-11-20T13:07:49;4.93;;;2.03;;
19219;SDS011;9744;49.364;7.484;2022-11-20T13:10:20;8.13;;;2.10;;
19219;SDS011;9744;49.364;7.484;2022-11-20T13:12:54;3.40;;;1.60;;
19219;SDS011;9744;49.364;7.484;2022-11-20T13:15:31;3.75;;;1.85;;
19219;SDS011;9744;49.364;7.484;2022-11-20T13:18:08;10.15;;;2.00;;
19219;SDS011;9744;49.364;7.484;2022-11-20T13:20:41;3.92;;;1.00;;
19219;SDS011;9744;49.364;7.484;2022-11-20T13:23:09;4.97;;;0.90;;
19219;SDS011;9744;49.364;7.484;2022-11-20T13:25:39;5.30;;;1.65;;
19219;SDS011;9744;49.364;7.484;2022-11-20T13:30:55;4.55;;;2.03;;
19219;SDS011;9744;49.364;7.484;2022-11-20T13:33:25;3.90;;;1.40;;
19219;SDS011;9744;49.364;7.484;2022-11-20T13:35:56;5.40;;;1.42;;
19219;SDS011;9744;49.364;7.484;2022-11-20T13:38:25;3.10;;;1.50;;
19219;SDS011;9744;49.364;7.484;2022-11-20T13:40:55;8.10;;;2.70;;
19219;SDS011;9744;49.364;7.484;2022-11-20T13:43:32;5.35;;;1.33;;
19219;SDS011;9744;49.364;7.484;2022-11-20T13:46:02;5.20;;;1.30;;
19219;SDS011;9744;49.364;7.484;2022-11-20T13:48:31;9.52;;;2.22;;
19219;SDS011;9744;49.364;7.484;2022-11-20T13:51:05;5.13;;;1.92;;
19219;SDS011;9744;49.364;7.484;2022-11-20T13:53:45;7.18;;;1.75;;
19219;SDS011;9744;49.364;7.484;2022-11-20T13:56:33;5.40;;;1.60;;
19219;SDS011;9744;49.364;7.484;2022-11-20T13:59:11;4.18;;;1.33;;
19219;SDS011;9744;49.364;7.484;2022-11-20T14:01:50;9.55;;;1.95;;
19219;SDS011;9744;49.364;7.484;2022-11-20T14:04:18;7.03;;;1.65;;
19219;SDS011;9744;49.364;7.484;2022-11-20T14:06:52;4.25;;;1.60;;
19219;SDS011;9744;49.364;7.484;2022-11-20T14:09:26;6.78;;;1.88;;
19219;SDS011;9744;49.364;7.484;2022-11-20T14:11:55;7.55;;;1.88;;
19219;SDS011;9744;49.364;7.484;2022-11-20T14:14:24;8.43;;;2.20;;
19219;SDS011;9744;49.364;7.484;2022-11-20T14:16:52;13.80;;;4.68;;
19219;SDS011;9744;49.364;7.484;2022-11-20T14:19:25;14.15;;;4.88;;
19219;SDS011;9744;49.364;7.484;2022-11-20T14:22:06;12.45;;;5.70;;
19219;SDS011;9744;49.364;7.484;2022-11-20T14:24:36;5.80;;;2.05;;
19219;SDS011;9744;49.364;7.484;2022-11-20T14:27:09;8.15;;;3.45;;
19219;SDS011;9744;49.364;7.484;2022-11-20T14:29:39;8.13;;;3.58;;
19219;SDS011;9744;49.364;7.484;2022-11-20T14:32:07;9.82;;;2.45;;
19219;SDS011;9744;49.364;7.484;2022-11-20T14:34:37;6.47;;;2.10;;
19219;SDS011;9744;49.364;7.484;2022-11-20T14:37:10;5.22;;;1.52;;
19219;SDS011;9744;49.364;7.484;2022-11-20T14:39:40;8.48;;;2.88;;
19219;SDS011;9744;49.364;7.484;2022-11-20T14:42:17;7.80;;;1.55;;
19219;SDS011;9744;49.364;7.484;2022-11-20T14:44:47;7.10;;;1.77;;
19219;SDS011;9744;49.364;7.484;2022-11-20T14:47:17;13.48;;;3.05;;
19219;SDS011;9744;49.364;7.484;2022-11-20T14:49:47;3.42;;;1.42;;
19219;SDS011;9744;49.364;7.484;2022-11-20T14:52:16;7.65;;;3.63;;
19219;SDS011;9744;49.364;7.484;2022-11-20T14:54:45;6.85;;;2.80;;
19219;SDS011;9744;49.364;7.484;2022-11-20T14:57:24;9.90;;;3.25;;
19219;SDS011;9744;49.364;7.484;2022-11-20T15:00:04;15.13;;;5.22;;
19219;SDS011;9744;49.364;7.484;2022-11-20T15:02:33;8.07;;;4.72;;
19219;SDS011;9744;49.364;7.484;2022-11-20T15:05:01;11.90;;;4.43;;
19219;SDS011;9744;49.364;7.484;2022-11-20T15:07:30;12.65;;;4.00;;
19219;SDS011;9744;49.364;7.484;2022-11-20T15:10:01;14.50;;;5.65;;
19219;SDS011;9744;49.364;7.484;2022-11-20T15:12:31;25.45;;;8.95;;
19219;SDS011;9744;49.364;7.484;2022-11-20T15:15:00;12.40;;;4.97;;